Time;durP1;ratioP1;P1;durP2;ratioP2;P2;SDS_P1;SDS_P2;PMS_P1;PMS_P2;Temp;Humidity;BMP_temperature;BMP_pressure;BME280_temperature;BME280_humidity;BME280_pressure;Samples;Min_cycle;Max_cycle;Signal;HPM_P1;HPM_P2
2023/10/03 00:01:49;;;;;;;;;;;;;;;18.33;100.00;72333.59;4835524;29;20026;-74
2023/10/03 00:04:14;;;;;;;;;;;;;;;18.38;100.00;74455.53;4817128;29;19916;-74
2023/10/03 00:06:41;;;;;;;;;;;;;;;18.34;100.00;72687.97;4832148;29;19931;-73
2023/10/03 00:09:07;;;;;;;;;;;;;;;18.35;100.00;73041.78;4838398;29;19916;-74
2023/10/03 00:11:35;;;;;;;;;;;;;;;18.39;100.00;75515.78;4830612;29;20293;-73
2023/10/03 00:14:00;;;;;;;;;;;;;;;18.36;100.00;74805.78;4817614;29;19923;-73
2023/10/03 00:16:26;;;;;;;;;;;;;;;18.32;100.00;75859.09;4834761;29;20289;-74
2023/10/03 00:18:53;;;;;;;;;;;;;;;18.22;100.00;72673.34;4832886;29;20278;-74
2023/10/03 00:21:18;;;;;;;;;;;;;;;18.23;100.00;70559.53;4837832;29;19931;-73
2023/10/03 00:23:43;;;;;;;;;;;;;;;18.17;100.00;67383.22;4820571;29;20377;-74
2023/10/03 00:26:17;;;;;;;;;;;;;;;18.20;100.00;67387.19;4823033;29;19927;-73
2023/10/03 00:28:43;;;;;;;;;;;;;;;18.15;100.00;66325.72;4833126;29;19916;-74
2023/10/03 00:31:14;;;;;;;;;;;;;;;18.15;100.00;64917.88;4831434;29;19923;-74
2023/10/03 00:33:41;;;;;;;;;;;;;;;18.24;100.00;66335.75;4822542;29;19969;-74
2023/10/03 00:36:21;;;;;;;;;;;;;;;18.20;100.00;67034.63;4836328;29;19921;-74
2023/10/03 00:38:47;;;;;;;;;;;;;;;18.28;100.00;67395.69;4835486;29;19954;-73
2023/10/03 00:41:13;;;;;;;;;;;;;;;18.27;100.00;69155.19;4835816;29;20103;-73
2023/10/03 00:43:50;;;;;;;;;;;;;;;18.22;100.00;68797.22;4815594;29;20363;-74
2023/10/03 00:46:17;;;;;;;;;;;;;;;18.22;100.00;68445.09;4841174;29;19964;-73
2023/10/03 00:48:43;;;;;;;;;;;;;;;18.13;100.00;67730.69;4836570;29;19916;-74
2023/10/03 00:51:08;;;;;;;;;;;;;;;18.08;100.00;64910.78;4819050;29;19923;-74
2023/10/03 00:53:35;;;;;;;;;;;;;;;18.03;100.00;62443.69;4812818;29;19920;-73
2023/10/03 00:56:02;;;;;;;;;;;;;;;18.01;100.00;59279.63;4837587;29;19924;-73
2023/10/03 00:58:31;;;;;;;;;;;;;;;18.01;100.00;57524.59;4834455;29;20064;-74
2023/10/03 01:00:59;;;;;;;;;;;;;;;18.01;100.00;57173.56;4818043;29;19917;-75
2023/10/03 01:03:28;;;;;;;;;;;;;;;17.99;100.00;57171.16;4826454;29;20019;-74
2023/10/03 01:05:54;;;;;;;;;;;;;;;17.99;100.00;56118.78;4837263;29;20467;-75
2023/10/03 01:08:23;;;;;;;;;;;;;;;17.96;100.00;54712.69;4820776;29;19921;-74
2023/10/03 01:10:49;;;;;;;;;;;;;;;17.96;100.00;54361.47;4838321;29;19916;-74
2023/10/03 01:13:14;;;;;;;;;;;;;;;18.14;100.00;58590.63;4834702;29;20699;-75
2023/10/03 01:15:39;;;;;;;;;;;;;;;18.33;100.00;67401.34;4824097;29;20292;-75
2023/10/03 01:18:06;;;;;;;;;;;;;;;18.28;100.00;68804.16;4841043;29;20393;-74
2023/10/03 01:20:40;;;;;;;;;;;;;;;18.30;100.00;71273.16;4839106;29;19972;-74
2023/10/03 01:23:06;;;;;;;;;;;;;;;18.40;100.00;74458.03;4816919;29;19939;-74
2023/10/03 01:38:20;;;;;;;;;;;;;;;18.70;100.00;93598.69;4836428;29;20326;-74
2023/10/03 01:40:50;;;;;;;;;;;;;;;18.71;100.00;97148.69;4824483;29;20429;-75
2023/10/03 01:43:16;;;;;;;;;;;;;;;18.81;100.00;98940.22;4824723;29;19923;-74
2023/10/03 01:45:41;;;;;;;;;;;;;;;18.86;100.00;102857.22;4818073;29;20003;-72
2023/10/03 01:48:07;;;;;;;;;;;;;;;18.90;100.00;108912.63;4807964;29;19936;-73
2023/10/03 01:50:34;;;;;;;;;;;;;;;18.86;100.00;107124.66;4835693;29;19965;-73
2023/10/03 01:52:59;;;;;;;;;;;;;;;18.87;100.00;108551.16;4820334;29;20368;-74
2023/10/03 01:55:24;;;;;;;;;;;;;;;18.82;100.00;105338.63;4834742;29;19916;-75
2023/10/03 01:57:50;;;;;;;;;;;;;;;19.01;100.00;108220.44;5315812;24;20288;-74
2023/10/03 02:00:26;;;;;;;;;;;;;;;19.18;100.00;120735.03;4852215;29;19995;-74
2023/10/03 02:03:03;;;;;;;;;;;;;;;19.36;100.00;132222.84;4843655;29;19928;-74
2023/10/03 02:05:29;;;;;;;;;;;;;;;19.51;100.00;137995.06;4854909;29;20276;-73
2023/10/03 02:08:04;;;;;;;;;;;;;;;19.48;100.00;141580.19;4839200;29;19920;-74
2023/10/03 02:10:30;;;;;;;;;;;;;;;19.57;100.00;148311.63;4852147;29;19916;-73
2023/10/03 02:12:56;;;;;;;;;;;;;;;19.62;100.00;155329.75;4837997;29;19932;-73
2023/10/03 02:15:24;;;;;;;;;;;;;;;19.73;100.00;154894.94;4854538;29;19916;-74
2023/10/03 02:17:50;;;;;;;;;;;;;;;19.81;100.00;156417.44;4850608;29;19912;-73
2023/10/03 02:20:20;;;;;;;;;;;;;;;19.75;100.00;156403.06;4842802;29;20246;-73
2023/10/03 02:22:53;;;;;;;;;;;;;;;19.75;100.00;147894.97;4848610;29;20392;-75
2023/10/03 02:25:19;;;;;;;;;;;;;;;19.71;100.00;143071.09;4835575;29;19916;-73
2023/10/03 02:27:46;;;;;;;;;;;;;;;19.74;100.00;139484.59;4853874;29;20412;-73
2023/10/03 02:37:57;;;;;;;;;;;;;;;19.84;100.00;130894.34;5631121;24;19928;-74
2023/10/03 02:40:26;;;;;;;;;;;;;;;19.83;100.00;124801.88;4855852;29;19920;-73
2023/10/03 02:42:52;;;;;;;;;;;;;;;19.82;100.00;122294.72;4841436;29;19948;-73
2023/10/03 02:45:22;;;;;;;;;;;;;;;19.80;100.00;116928.91;4855231;29;19923;-73
2023/10/03 02:47:48;;;;;;;;;;;;;;;19.74;100.00;110134.28;4839434;29;19964;-73
2023/10/03 02:50:13;;;;;;;;;;;;;;;19.83;100.00;109081.72;4854196;29;19916;-73
2023/10/03 02:52:42;;;;;;;;;;;;;;;19.88;100.00;109803.22;4841483;29;19927;-74
2023/10/03 02:55:12;;;;;;;;;;;;;;;19.93;100.00;109099.00;4849198;29;19916;-73
2023/10/03 02:57:38;;;;;;;;;;;;;;;19.86;100.00;109086.28;4853738;29;19943;-72
2023/10/03 03:00:11;;;;;;;;;;;;;;;19.86;100.00;104809.84;4844979;29;20303;-73
2023/10/03 03:02:37;;;;;;;;;;;;;;;19.86;100.00;103385.06;4851287;29;19916;-72
2023/10/03 03:05:05;;;;;;;;;;;;;;;19.84;100.00;103024.69;4849859;29;20045;-73
2023/10/03 03:07:32;;;;;;;;;;;;;;;19.83;100.00;109794.09;4850044;29;19920;-72
2023/10/03 03:09:59;;;;;;;;;;;;;;;19.86;100.00;113368.06;4852610;29;20373;-74
2023/10/03 03:12:24;;;;;;;;;;;;;;;19.76;100.00;112278.47;4841575;29;20300;-72
2023/10/03 03:14:50;;;;;;;;;;;;;;;19.76;100.00;110851.31;4854884;29;20064;-72
2023/10/03 03:17:18;;;;;;;;;;;;;;;19.73;100.00;109419.19;4849065;29;19957;-73
2023/10/03 03:19:44;;;;;;;;;;;;;;;19.73;100.00;104430.09;4854028;29;19939;-73
2023/10/03 03:22:11;;;;;;;;;;;;;;;19.62;100.00;99428.88;4832064;29;20020;-73
2023/10/03 03:24:39;;;;;;;;;;;;;;;19.52;100.00;92307.63;4851508;29;19924;-79
2023/10/03 03:27:11;;;;;;;;;;;;;;;19.51;100.00;91950.38;4833881;29;19925;-77
2023/10/03 03:29:38;;;;;;;;;;;;;;;19.39;100.00;110070.00;4854022;29;20380;-77
2023/10/03 03:32:04;;;;;;;;;;;;;;;19.29;100.00;115758.75;4841694;29;19920;-77
2023/10/03 03:34:30;;;;;;;;;;;;;;;19.20;100.00;109322.53;4852962;29;19965;-78
2023/10/03 03:36:56;;;;;;;;;;;;;;;19.02;100.00;94713.22;4852887;29;19923;-76
2023/10/03 03:39:21;;;;;;;;;;;;;;;18.94;100.00;83715.59;4850580;29;20376;-78
2023/10/03 03:41:48;;;;;;;;;;;;;;;18.89;100.00;76637.94;4851054;29;19928;-78
2023/10/03 03:44:14;;;;;;;;;;;;;;;18.85;100.00;72044.50;4840536;29;19950;-77
2023/10/03 03:46:43;;;;;;;;;;;;;;;18.79;100.00;65339.88;4852522;29;20266;-78
2023/10/03 03:49:09;;;;;;;;;;;;;;;18.75;100.00;61815.59;4852471;29;20370;-78
2023/10/03 03:51:35;;;;;;;;;;;;;;;18.69;100.00;58996.00;4854308;29;19920;-77
2023/10/03 03:54:00;;;;;;;;;;;;;;;18.65;100.00;56180.81;4827053;29;19931;-78
2023/10/03 03:56:26;;;;;;;;;;;;;;;18.58;100.00;53014.78;4854392;29;19920;-79
2023/10/03 03:58:51;;;;;;;;;;;;;;;18.57;100.00;52311.59;4838209;29;19916;-78
2023/10/03 04:01:19;;;;;;;;;;;;;;;18.55;100.00;53011.66;4849322;29;19920;-77
2023/10/03 04:03:45;;;;;;;;;;;;;;;18.52;100.00;53009.41;4835866;29;20003;-77
2023/10/03 04:06:11;;;;;;;;;;;;;;;18.57;100.00;57578.41;4855309;29;20014;-79
2023/10/03 04:08:36;;;;;;;;;;;;;;;18.54;100.00;60036.13;4848285;29;20417;-79
2023/10/03 04:11:05;;;;;;;;;;;;;;;18.54;100.00;62145.50;4857699;29;19920;-78
2023/10/03 04:13:35;;;;;;;;;;;;;;;18.52;100.00;65310.78;4848488;29;19916;-78
2023/10/03 04:16:00;;;;;;;;;;;;;;;18.46;100.00;66008.22;4837084;29;19916;-78
2023/10/03 04:18:26;;;;;;;;;;;;;;;18.43;100.00;66004.34;4847711;29;19923;-78
2023/10/03 04:20:53;;;;;;;;;;;;;;;18.32;100.00;65992.72;4836148;29;19927;-77
2023/10/03 04:23:19;;;;;;;;;;;;;;;18.31;100.00;64583.47;4849703;29;19916;-79
2023/10/03 04:25:44;;;;;;;;;;;;;;;18.28;100.00;65988.25;4833212;29;19927;-77
2023/10/03 04:28:11;;;;;;;;;;;;;;;18.28;100.00;65635.78;4852031;29;20841;-79
2023/10/03 04:30:39;;;;;;;;;;;;;;;18.25;100.00;67744.34;4841279;29;19924;-77
2023/10/03 04:33:05;;;;;;;;;;;;;;;18.20;100.00;66683.22;4840049;29;19920;-74
2023/10/03 04:35:30;;;;;;;;;;;;;;;18.23;100.00;66334.06;4852857;29;19920;-74
2023/10/03 04:37:57;;;;;;;;;;;;;;;18.18;100.00;65273.47;4855635;29;19920;-74
2023/10/03 04:40:27;;;;;;;;;;;;;;;18.17;100.00;62106.81;4840274;29;19951;-73
2023/10/03 04:42:53;;;;;;;;;;;;;;;18.18;100.00;59296.59;4856025;29;19940;-74
2023/10/03 04:45:19;;;;;;;;;;;;;;;18.20;100.00;58596.56;4842393;29;19919;-72
2023/10/03 04:47:45;;;;;;;;;;;;;;;18.17;100.00;56486.38;4838656;29;19927;-74
2023/10/03 04:50:11;;;;;;;;;;;;;;;18.19;100.00;54733.47;4838745;29;19912;-74
2023/10/03 04:52:41;;;;;;;;;;;;;;;18.25;100.00;53336.00;4857921;29;19975;-72
2023/10/03 04:55:07;;;;;;;;;;;;;;;18.24;100.00;51581.09;4841963;29;19923;-72
2023/10/03 04:57:32;;;;;;;;;;;;;;;18.26;100.00;49479.53;4835279;29;19917;-73
2023/10/03 04:59:59;;;;;;;;;;;;;;;18.24;100.00;48426.66;4837911;29;19920;-73
2023/10/03 05:02:25;;;;;;;;;;;;;;;18.26;100.00;46676.84;4855235;29;19927;-73
2023/10/03 05:04:51;;;;;;;;;;;;;;;18.27;100.00;45977.25;4858467;29;19927;-73
2023/10/03 05:07:17;;;;;;;;;;;;;;;18.30;100.00;45979.97;4853324;29;19924;-73
2023/10/03 05:09:42;;;;;;;;;;;;;;;18.31;100.00;45280.44;4852358;29;20278;-73
2023/10/03 05:12:09;;;;;;;;;;;;;;;18.27;100.00;42827.09;4853574;29;19915;-74
2023/10/03 05:14:37;;;;;;;;;;;;;;;18.29;100.00;41429.25;4854154;29;19927;-74
2023/10/03 05:17:02;;;;;;;;;;;;;;;18.31;100.00;42130.28;4851335;29;19920;-73
2023/10/03 05:19:31;;;;;;;;;;;;;;;18.33;100.00;41782.25;4851887;29;19946;-73
2023/10/03 05:21:57;;;;;;;;;;;;;;;18.34;100.00;41782.63;4849343;29;19917;-74
2023/10/03 05:24:22;;;;;;;;;;;;;;;18.34;100.00;42832.59;4851954;29;19916;-74
2023/10/03 05:26:48;;;;;;;;;;;;;;;18.34;100.00;41782.63;4851016;29;20407;-74
2023/10/03 05:29:14;;;;;;;;;;;;;;;18.35;100.00;43532.88;4854335;29;20029;-74
2023/10/03 05:31:41;;;;;;;;;;;;;;;18.28;100.00;42128.50;4856133;29;20003;-73
2023/10/03 05:34:07;;;;;;;;;;;;;;;18.26;100.00;43176.28;4845916;29;20721;-73
2023/10/03 05:36:32;;;;;;;;;;;;;;;18.28;100.00;42827.84;4856167;29;20007;-73
2023/10/03 05:41:41;;;;;;;;;;;;;;;18.26;100.00;46676.84;5538016;24;20385;-72
2023/10/03 05:44:11;;;;;;;;;;;;;;;18.27;100.00;48779.50;4841123;29;20396;-72
2023/10/03 05:46:37;;;;;;;;;;;;;;;18.25;100.00;48777.84;4853428;29;19924;-72
2023/10/03 05:49:03;;;;;;;;;;;;;;;18.22;100.00;49125.75;4825148;29;20003;-72
2023/10/03 05:51:29;;;;;;;;;;;;;;;18.27;100.00;48779.50;4852697;29;19920;-74
2023/10/03 05:53:54;;;;;;;;;;;;;;;18.28;100.00;50182.19;4835470;29;19920;-74
2023/10/03 05:56:19;;;;;;;;;;;;;;;18.30;100.00;48081.19;4852768;29;20306;-73
2023/10/03 05:58:45;;;;;;;;;;;;;;;18.33;100.00;47033.06;4858451;29;20011;-74
2023/10/03 06:01:12;;;;;;;;;;;;;;;18.30;100.00;45279.31;4841363;29;20547;-73
2023/10/03 06:03:37;;;;;;;;;;;;;;;18.32;100.00;44581.06;4842560;29;20023;-73
2023/10/03 06:06:03;;;;;;;;;;;;;;;18.37;100.00;42834.41;4854216;29;19983;-73
2023/10/03 06:08:32;;;;;;;;;;;;;;;18.35;100.00;42483.06;4845078;29;19921;-73
2023/10/03 06:10:58;;;;;;;;;;;;;;;18.35;100.00;39684.94;4855213;29;19920;-73
2023/10/03 06:13:23;;;;;;;;;;;;;;;18.30;100.00;33742.88;4850443;29;20397;-73
2023/10/03 06:15:48;;;;;;;;;;;;;;;18.28;100.00;25721.19;4835823;29;19917;-73
2023/10/03 06:18:14;;;;;;;;;;;;;;;18.21;100.00;18409.97;4847347;29;19926;-75
2023/10/03 06:28:24;;;;;;;;;;;;;;;17.82;100.00;15271.34;5235998;24;19924;-76
2023/10/03 06:30:52;;;;;;;;;;;;;;;17.76;100.00;16311.34;4832698;29;19931;-75
2023/10/03 06:33:18;;;;;;;;;;;;;;;17.78;100.00;17701.00;4834458;29;19928;-74
2023/10/03 06:35:43;;;;;;;;;;;;;;;17.77;100.00;17700.81;4837604;29;19920;-75
2023/10/03 06:38:08;;;;;;;;;;;;;;;17.72;100.00;20131.31;4836490;29;19916;-74
2023/10/03 06:40:34;;;;;;;;;;;;;;;17.74;100.00;20827.03;4832315;29;20296;-75
2023/10/03 06:42:59;;;;;;;;;;;;;;;17.76;100.00;22218.72;4834419;29;19919;-75
2023/10/03 06:45:24;;;;;;;;;;;;;;;17.68;100.00;21520.03;4850341;29;19920;-75
2023/10/03 06:47:50;;;;;;;;;;;;;;;17.74;100.00;20132.03;4934278;24;19924;-75
2023/10/03 06:50:15;;;;;;;;;;;;;;;17.73;100.00;21521.94;4842973;29;19926;-74
2023/10/03 06:52:40;;;;;;;;;;;;;;;17.71;100.00;21868.84;4839297;29;19965;-75
2023/10/03 06:55:06;;;;;;;;;;;;;;;17.65;100.00;23257.41;4857215;29;19916;-74
2023/10/03 06:57:32;;;;;;;;;;;;;;;17.68;100.00;22215.59;4837462;29;19920;-75
2023/10/03 06:59:57;;;;;;;;;;;;;;;17.74;100.00;22217.75;4859331;29;20021;-75
2023/10/03 07:02:23;;;;;;;;;;;;;;;17.74;100.00;22565.50;4852249;29;19951;-74
2023/10/03 07:04:48;;;;;;;;;;;;;;;17.74;100.00;25696.72;4858135;29;19962;-75
2023/10/03 07:07:13;;;;;;;;;;;;;;;17.69;100.00;23259.06;4851913;29;20023;-75
2023/10/03 07:09:39;;;;;;;;;;;;;;;17.66;100.00;25345.13;4857615;29;19916;-74
2023/10/03 07:12:07;;;;;;;;;;;;;;;17.68;100.00;26738.22;4840517;29;20018;-74
2023/10/03 07:14:33;;;;;;;;;;;;;;;17.65;100.00;28477.66;4896644;24;19933;-74
2023/10/03 07:16:58;;;;;;;;;;;;;;;17.63;100.00;30566.94;4819052;29;19985;-74
2023/10/03 07:19:24;;;;;;;;;;;;;;;17.59;100.00;27778.34;4803554;29;19921;-74
2023/10/03 07:21:51;;;;;;;;;;;;;;;17.43;100.00;18731.63;4821407;29;20276;-75
2023/10/03 08:47:10;;;;;;;;;;;;;;;16.42;100.00;25637.50;4922925;24;19956;-75
2023/10/03 09:27:07;;;;;;;;;;;;;;;16.18;100.00;33967.66;5606802;24;19981;-75
2023/10/03 09:29:33;;;;;;;;;;;;;;;16.04;100.00;33959.75;4841979;29;19924;-76
2023/10/03 09:32:12;;;;;;;;;;;;;;;16.01;100.00;32219.03;4823294;29;19923;-76
2023/10/03 09:34:40;;;;;;;;;;;;;;;16.01;100.00;29438.78;4832410;29;19948;-75
2023/10/03 09:39:39;;;;;;;;;;;;;;;15.97;100.00;24923.28;4839993;29;19980;-75
2023/10/03 09:42:07;;;;;;;;;;;;;;;16.03;100.00;21110.53;4847952;29;19991;-76
2023/10/03 10:09:13;;;;;;;;;;;;;;;17.08;100.00;24624.19;5820521;23;19923;-77
2023/10/03 10:32:19;;;;;;;;;;;;;;;16.23;100.00;10728.19;5328809;24;20343;-73
2023/10/03 10:34:46;;;;;;;;;;;;;;;16.22;100.00;11765.59;4810478;29;19950;-75
2023/10/03 10:37:15;;;;;;;;;;;;;;;16.15;100.00;13148.09;4822234;29;20011;-73
2023/10/03 11:31:50;;;;;;;;;;;;;;;15.36;100.00;5533.06;4954313;24;19925;-73
2023/10/03 11:34:27;;;;;;;;;;;;;;;15.29;100.00;5187.31;4819332;29;20390;-72
2023/10/03 11:36:54;;;;;;;;;;;;;;;15.49;100.00;2775.66;4821600;29;19990;-78
2023/10/03 11:39:23;;;;;;;;;;;;;;;15.52;100.00;2086.41;4805977;29;20373;-76
2023/10/03 11:41:49;;;;;;;;;;;;;;;15.67;100.00;2777.00;4822206;29;21628;-77
2023/10/03 11:44:21;;;;;;;;;;;;;;;15.61;100.00;6226.28;4825776;29;19974;-77
2023/10/03 11:46:46;;;;;;;;;;;;;;;15.79;100.00;7955.06;4823362;29;20364;-77
2023/10/03 11:49:13;;;;;;;;;;;;;;;16.47;100.00;8311.75;4835658;29;19967;-78
2023/10/03 12:12:20;;;;;;;;;;;;;;;16.58;100.00;39216.53;5284571;24;20381;-79
2023/10/03 12:14:46;;;;;;;;;;;;;;;16.32;100.00;50365.38;4854614;29;19924;-77
2023/10/03 12:19:47;;;;;;;;;;;;;;;16.62;100.00;56339.34;5061131;24;19932;-79
2023/10/03 12:22:13;;;;;;;;;;;;;;;16.65;100.00;59143.94;4840014;29;20015;-78
2023/10/03 12:45:17;;;;;;;;;;;;;;;15.66;100.00;41243.94;5190150;24;19960;-77
2023/10/03 12:47:52;;;;;;;;;;;;;;;15.66;100.00;40895.69;4817450;29;19931;-76
2023/10/03 12:50:19;;;;;;;;;;;;;;;15.41;100.00;54477.03;4801404;29;19932;-77
2023/10/03 15:51:16;;;;;;;;;;;;;;;16.41;100.00;155531.72;4780053;29;20342;-72
2023/10/03 15:53:44;;;;;;;;;;;;;;;16.44;100.00;155539.56;4780690;29;20295;-73
2023/10/03 15:56:13;;;;;;;;;;;;;;;16.40;100.00;155530.47;4777867;29;20367;-74
2023/10/03 17:10:04;;;;;;;;;;;;;;;15.43;100.00;155278.16;5364517;24;20020;-73
2023/10/03 17:12:29;;;;;;;;;;;;;;;15.38;100.00;155263.88;4808595;29;19917;-73
2023/10/03 17:53:41;;;;;;;;;;;;;;;15.56;100.00;155310.66;5360375;24;19925;-72
2023/10/03 17:56:08;;;;;;;;;;;;;;;15.61;100.00;155324.97;4810396;29;20437;-73
2023/10/03 17:58:34;;;;;;;;;;;;;;;15.61;100.00;155323.66;4814495;29;20297;-74
2023/10/03 18:01:00;;;;;;;;;;;;;;;15.61;100.00;155324.97;4807187;29;19950;-73
2023/10/03 18:34:28;;;;;;;;;;;;;;;15.16;100.00;155207.94;5402216;24;19925;-73
2023/10/03 18:36:54;;;;;;;;;;;;;;;15.08;100.00;155185.84;4836967;29;19924;-73
2023/10/03 18:39:19;;;;;;;;;;;;;;;15.01;100.00;155169.00;4837987;29;19917;-72
2023/10/03 18:41:44;;;;;;;;;;;;;;;15.01;100.00;155167.69;4818586;29;19920;-73
2023/10/03 18:44:14;;;;;;;;;;;;;;;14.99;100.00;155163.78;4842513;29;20294;-73
2023/10/03 18:46:40;;;;;;;;;;;;;;;14.99;100.00;155163.78;4836275;29;19916;-72
2023/10/03 18:49:05;;;;;;;;;;;;;;;15.00;100.00;155165.09;5285616;24;19981;-73
2023/10/03 18:51:31;;;;;;;;;;;;;;;14.99;100.00;155163.78;4838394;29;19927;-72
2023/10/03 18:53:56;;;;;;;;;;;;;;;14.95;100.00;155152.09;4819335;29;19963;-72
2023/10/03 18:56:22;;;;;;;;;;;;;;;14.89;100.00;155137.78;4835091;29;20010;-72
2023/10/03 18:58:47;;;;;;;;;;;;;;;14.88;100.00;155133.94;4836051;29;19924;-73
2023/10/03 19:01:17;;;;;;;;;;;;;;;14.86;100.00;155130.03;4838641;29;20284;-73
2023/10/03 19:03:43;;;;;;;;;;;;;;;14.78;100.00;155107.94;4838027;29;19942;-74
2023/10/03 19:19:04;;;;;;;;;;;;;;;14.81;100.00;155115.72;5136743;24;20429;-73
2023/10/03 19:21:31;;;;;;;;;;;;;;;14.81;100.00;155115.72;4852205;29;19921;-74
2023/10/03 19:44:38;;;;;;;;;;;;;;;14.23;100.00;135359.91;5860413;24;19919;-71
2023/10/03 19:47:04;;;;;;;;;;;;;;;14.11;100.00;130357.38;4853776;29;19928;-75
2023/10/03 20:20:32;;;;;;;;;;;;;;;13.87;100.00;67247.72;5470269;24;20392;-75
2023/10/03 20:22:58;;;;;;;;;;;;;;;13.86;100.00;65848.72;5442346;24;19970;-75
2023/10/03 20:25:23;;;;;;;;;;;;;;;13.89;100.00;63756.03;4831934;29;19971;-77
2023/10/03 20:27:52;;;;;;;;;;;;;;;13.91;100.00;64106.91;4831028;29;20323;-75
2023/10/03 20:30:17;;;;;;;;;;;;;;;13.85;100.00;63751.19;4814878;29;19972;-76
2023/10/03 22:42:30;;;;;;;;;;;;;;;13.85;100.00;151137.78;5886802;24;19927;-73
2023/10/03 22:44:55;;;;;;;;;;;;;;;14.03;100.00;154914.41;4808252;29;20409;-73
2023/10/03 22:47:20;;;;;;;;;;;;;;;13.98;100.00;154900.16;4793560;29;19925;-74
2023/10/03 22:49:45;;;;;;;;;;;;;;;14.01;100.00;154907.91;4821462;29;19921;-74
2023/10/03 22:52:11;;;;;;;;;;;;;;;14.00;100.00;154905.31;4814643;29;19917;-74
2023/10/03 22:54:37;;;;;;;;;;;;;;;14.02;100.00;154911.81;4814335;29;20003;-75
2023/10/03 22:57:02;;;;;;;;;;;;;;;14.00;100.00;154905.31;4810592;29;20277;-73
2023/10/03 22:59:29;;;;;;;;;;;;;;;13.89;100.00;154876.75;4809818;29;19948;-73
2023/10/03 23:09:40;;;;;;;;;;;;;;;13.92;100.00;134223.34;5277793;24;19928;-73
2023/10/03 23:12:05;;;;;;;;;;;;;;;14.00;100.00;137085.78;4836218;29;20330;-73
2023/10/03 23:14:30;;;;;;;;;;;;;;;14.00;100.00;136730.09;4830531;29;19942;-73
2023/10/03 23:16:55;;;;;;;;;;;;;;;14.02;100.00;136379.03;4824015;29;19917;-74
2023/10/03 23:19:21;;;;;;;;;;;;;;;14.02;100.00;137802.97;4822831;29;19920;-74
2023/10/03 23:21:48;;;;;;;;;;;;;;;14.04;100.00;138518.03;4832886;29;20393;-72
2023/10/03 23:24:15;;;;;;;;;;;;;;;13.98;100.00;134236.84;4837751;29;19917;-74
2023/10/03 23:26:40;;;;;;;;;;;;;;;13.89;100.00;128180.81;5077757;24;19980;-73
2023/10/03 23:49:47;;;;;;;;;;;;;;;13.96;100.00;106957.41;5516855;24;19924;-73
2023/10/03 23:52:14;;;;;;;;;;;;;;;13.95;100.00;103779.41;4842419;24;19928;-73
2023/10/03 23:54:39;;;;;;;;;;;;;;;13.92;100.00;103420.59;4817043;29;19921;-74
2023/10/03 23:57:11;;;;;;;;;;;;;;;13.83;100.00;100233.03;4812542;29;20159;-75
2023/10/03 23:59:39;;;;;;;;;;;;;;;13.83;100.00;97414.06;4809722;29;19916;-73
